Time;durP1;ratioP1;P1;durP2;ratioP2;P2;SDS_P1;SDS_P2;PMS_P1;PMS_P2;Temp;Humidity;BMP_temperature;BMP_pressure;BME280_temperature;BME280_humidity;BME280_pressure;Samples;Min_cycle;Max_cycle;Signal;HPM_P1;HPM_P2
2021/01/25 00:02:21;;;;;;;10.93;9.38;;;0.10;99.90;;;;;;4970994;28;20250;-24
2021/01/25 00:04:48;;;;;;;10.18;9.00;;;0.10;99.90;;;;;;4970440;28;20301;-23
2021/01/25 00:07:16;;;;;;;12.75;10.55;;;0.10;99.90;;;;;;4969310;28;20282;-23
2021/01/25 00:09:43;;;;;;;11.98;10.70;;;0.10;99.90;;;;;;4969145;28;20218;-24
2021/01/25 00:12:13;;;;;;;13.30;10.73;;;0.10;99.90;;;;;;4970509;28;20211;-23
2021/01/25 00:14:39;;;;;;;21.00;12.80;;;0.20;99.90;;;;;;4970552;28;20204;-23
2021/01/25 00:17:06;;;;;;;15.65;12.10;;;0.20;99.90;;;;;;4973492;28;20637;-24
2021/01/25 00:19:33;;;;;;;13.32;11.90;;;0.30;99.90;;;;;;4974433;28;20192;-23
2021/01/25 00:22:04;;;;;;;12.90;11.57;;;0.30;99.90;;;;;;4973882;28;20199;-24
2021/01/25 00:24:32;;;;;;;14.02;9.98;;;0.30;99.90;;;;;;4973430;28;20492;-24
2021/01/25 00:26:59;;;;;;;12.85;11.45;;;0.30;99.90;;;;;;4957232;28;20700;-23
2021/01/25 00:29:28;;;;;;;11.25;10.07;;;0.30;99.90;;;;;;4957046;28;20250;-24
2021/01/25 00:31:55;;;;;;;12.48;10.07;;;0.40;99.90;;;;;;4975682;28;20286;-23
2021/01/25 00:34:22;;;;;;;12.45;10.15;;;0.40;99.90;;;;;;4974258;28;20381;-23
2021/01/25 00:36:49;;;;;;;15.85;11.77;;;0.50;99.90;;;;;;4956807;28;20207;-23
2021/01/25 00:39:16;;;;;;;18.17;11.40;;;0.60;99.90;;;;;;4974534;28;20688;-23
2021/01/25 00:41:44;;;;;;;12.90;10.80;;;0.70;99.90;;;;;;4974593;28;20237;-23
2021/01/25 00:44:10;;;;;;;12.63;10.00;;;0.80;99.90;;;;;;4956720;28;20445;-24
2021/01/25 00:46:37;;;;;;;11.20;10.10;;;0.90;99.90;;;;;;4973059;28;20437;-25
2021/01/25 00:49:04;;;;;;;13.40;9.47;;;1.00;99.90;;;;;;4974189;28;20492;-23
2021/01/25 00:51:31;;;;;;;12.90;9.98;;;1.10;99.90;;;;;;4969666;28;20474;-24
2021/01/25 00:53:58;;;;;;;14.00;11.13;;;1.20;99.90;;;;;;4971050;28;20612;-25
2021/01/25 00:56:27;;;;;;;15.80;11.10;;;1.20;99.90;;;;;;4968106;28;20472;-24
2021/01/25 00:58:56;;;;;;;10.70;9.60;;;1.20;99.90;;;;;;4972629;28;20456;-25
2021/01/25 01:01:25;;;;;;;11.68;8.85;;;1.00;99.90;;;;;;4955459;28;20944;-24
2021/01/25 01:03:52;;;;;;;10.07;8.93;;;0.80;99.90;;;;;;4973671;28;20269;-24
2021/01/25 01:06:19;;;;;;;13.53;9.00;;;0.90;99.90;;;;;;4973643;28;21100;-25
2021/01/25 01:08:46;;;;;;;9.23;8.33;;;1.00;99.90;;;;;;4972938;28;20900;-24
2021/01/25 01:11:13;;;;;;;10.50;7.77;;;1.00;99.90;;;;;;4973391;28;20488;-24
2021/01/25 01:13:40;;;;;;;8.97;8.00;;;1.10;99.90;;;;;;4972616;28;21049;-24
2021/01/25 01:16:08;;;;;;;9.20;8.20;;;1.10;99.90;;;;;;4972800;28;20473;-24
2021/01/25 01:18:37;;;;;;;10.67;9.57;;;0.90;99.90;;;;;;4972797;28;20517;-24
2021/01/25 01:21:04;;;;;;;9.40;8.40;;;0.70;99.90;;;;;;4971779;28;20441;-25
2021/01/25 01:23:34;;;;;;;12.93;9.20;;;0.80;99.90;;;;;;4973290;28;20536;-25
2021/01/25 01:26:01;;;;;;;11.00;9.10;;;0.80;99.90;;;;;;4965065;28;20468;-25
2021/01/25 01:28:27;;;;;;;10.43;8.60;;;0.90;99.90;;;;;;4973566;28;20759;-25
2021/01/25 01:30:54;;;;;;;9.63;8.57;;;0.90;99.90;;;;;;4972877;28;20566;-24
2021/01/25 01:33:25;;;;;;;11.38;9.50;;;0.70;99.90;;;;;;4954631;28;20203;-24
2021/01/25 01:35:52;;;;;;;13.23;9.57;;;0.50;99.90;;;;;;4972154;28;20212;-25
2021/01/25 01:38:19;;;;;;;9.40;8.40;;;0.20;99.90;;;;;;4971845;28;20461;-25
2021/01/25 01:40:46;;;;;;;9.83;7.70;;;0.10;99.90;;;;;;4971823;28;20754;-24
2021/01/25 01:43:13;;;;;;;8.90;7.65;;;0.10;99.90;;;;;;4972980;28;20477;-24
2021/01/25 01:45:39;;;;;;;8.88;7.93;;;0.10;99.90;;;;;;4972138;28;20188;-24
2021/01/25 01:48:09;;;;;;;12.03;8.60;;;0.20;99.90;;;;;;4973362;28;20506;-24
2021/01/25 01:50:40;;;;;;;9.60;8.00;;;0.40;99.90;;;;;;4973205;28;20495;-24
2021/01/25 01:53:07;;;;;;;8.73;7.67;;;0.50;99.90;;;;;;4955356;28;20557;-24
2021/01/25 01:55:34;;;;;;;9.97;7.73;;;0.60;99.90;;;;;;4971770;28;20944;-24
2021/01/25 01:58:05;;;;;;;9.00;6.70;;;0.80;99.90;;;;;;4972093;28;20448;-24
2021/01/25 02:00:35;;;;;;;7.97;7.18;;;0.90;99.90;;;;;;4972945;28;20450;-25
2021/01/25 02:03:02;;;;;;;8.60;7.80;;;0.90;99.90;;;;;;4955902;28;20295;-24
2021/01/25 02:05:28;;;;;;;10.93;6.30;;;1.00;99.90;;;;;;4973096;28;20459;-25
2021/01/25 02:07:58;;;;;;;7.75;6.80;;;1.00;99.90;;;;;;4972964;28;20754;-25
2021/01/25 02:10:29;;;;;;;8.60;6.65;;;1.00;99.90;;;;;;4970652;28;20207;-25
2021/01/25 02:12:59;;;;;;;10.37;7.20;;;0.90;99.90;;;;;;4972055;28;20200;-25
2021/01/25 02:15:27;;;;;;;10.77;7.70;;;1.00;99.90;;;;;;4971720;28;20448;-24
2021/01/25 02:17:54;;;;;;;6.73;6.20;;;1.20;99.90;;;;;;4973289;28;20445;-24
2021/01/25 02:20:29;;;;;;;8.33;6.83;;;1.20;99.90;;;;;;4971751;28;20450;-24
2021/01/25 02:23:31;;;;;;;7.40;6.80;;;1.30;99.90;;;;;;4971773;28;20437;-25
2021/01/25 02:26:07;;;;;;;7.67;6.87;;;1.40;99.90;;;;;;4973265;28;20888;-25
2021/01/25 02:28:37;;;;;;;8.20;7.13;;;1.40;99.90;;;;;;4972681;28;20434;-25
2021/01/25 02:31:08;;;;;;;10.20;8.63;;;1.40;99.90;;;;;;4954420;28;20492;-25
2021/01/25 02:33:36;;;;;;;8.70;7.60;;;1.40;99.90;;;;;;4970138;28;20437;-25
2021/01/25 02:36:04;;;;;;;9.23;8.33;;;1.40;99.90;;;;;;4969524;28;21032;-25
2021/01/25 02:38:31;;;;;;;9.77;8.20;;;1.40;99.90;;;;;;4970507;28;20439;-25
2021/01/25 02:40:59;;;;;;;9.93;8.40;;;1.30;99.90;;;;;;4971921;28;21117;-25
2021/01/25 02:43:28;;;;;;;9.63;8.63;;;1.30;99.90;;;;;;4972631;28;20466;-25
2021/01/25 02:46:00;;;;;;;8.33;6.90;;;1.30;99.90;;;;;;4972532;28;20438;-25
2021/01/25 02:48:26;;;;;;;7.17;6.57;;;1.20;99.90;;;;;;4972226;28;20456;-25
2021/01/25 02:50:56;;;;;;;7.30;6.60;;;1.20;99.90;;;;;;4971232;28;20496;-25
2021/01/25 02:53:22;;;;;;;9.33;6.43;;;1.10;99.90;;;;;;4971151;28;20500;-25
2021/01/25 02:55:51;;;;;;;7.37;6.70;;;1.00;99.90;;;;;;4972223;28;20524;-25
2021/01/25 02:58:19;;;;;;;7.67;6.87;;;1.00;99.90;;;;;;4954123;28;20449;-25
2021/01/25 03:00:50;;;;;;;7.23;6.50;;;1.00;99.90;;;;;;4971653;28;20511;-25
2021/01/25 03:03:23;;;;;;;8.63;7.73;;;1.10;99.90;;;;;;4971772;28;20449;-25
2021/01/25 03:05:50;;;;;;;11.17;6.90;;;1.10;99.90;;;;;;4971680;28;20442;-25
2021/01/25 03:08:17;;;;;;;8.13;6.87;;;1.10;99.90;;;;;;4970985;28;20447;-25
2021/01/25 03:10:47;;;;;;;10.82;7.22;;;1.10;99.90;;;;;;4970452;28;20461;-25
2021/01/25 03:13:14;;;;;;;9.07;7.40;;;1.00;99.90;;;;;;4972172;28;20501;-25
2021/01/25 03:15:43;;;;;;;8.80;6.87;;;1.00;99.90;;;;;;4971488;28;20497;-25
2021/01/25 03:18:10;;;;;;;6.97;6.23;;;1.10;99.90;;;;;;4971803;28;20449;-25
2021/01/25 03:20:37;;;;;;;7.27;6.57;;;1.10;99.90;;;;;;4970960;28;20449;-24
2021/01/25 03:23:04;;;;;;;8.47;6.77;;;1.20;99.90;;;;;;4972195;28;20439;-24
2021/01/25 03:25:31;;;;;;;8.60;7.20;;;1.30;99.90;;;;;;4969550;28;20564;-24
2021/01/25 03:27:58;;;;;;;9.97;7.47;;;1.40;99.90;;;;;;4971761;28;20445;-24
2021/01/25 03:30:25;;;;;;;8.40;7.53;;;1.50;99.90;;;;;;4972352;28;20469;-24
2021/01/25 03:32:51;;;;;;;7.40;6.70;;;1.60;99.90;;;;;;4970790;28;20437;-24
2021/01/25 03:35:18;;;;;;;6.80;6.20;;;1.60;99.90;;;;;;4970573;28;20492;-24
2021/01/25 03:37:47;;;;;;;7.30;6.60;;;1.60;99.90;;;;;;4971310;28;20871;-24
2021/01/25 03:40:14;;;;;;;7.80;7.00;;;1.70;99.90;;;;;;4972249;28;20457;-24
2021/01/25 03:42:41;;;;;;;8.93;7.60;;;1.70;99.90;;;;;;4970361;28;20882;-24
2021/01/25 03:45:09;;;;;;;7.47;6.67;;;1.70;99.90;;;;;;4970678;28;20449;-24
2021/01/25 03:47:35;;;;;;;7.53;6.57;;;1.80;99.90;;;;;;4971307;28;20441;-25
2021/01/25 03:50:04;;;;;;;7.73;7.03;;;1.80;99.90;;;;;;4973758;28;20493;-24
2021/01/25 03:52:31;;;;;;;8.63;7.77;;;1.80;99.90;;;;;;4976327;28;20448;-24
2021/01/25 03:54:59;;;;;;;7.77;7.00;;;1.80;99.90;;;;;;4975177;28;20495;-24
2021/01/25 03:57:26;;;;;;;7.50;6.80;;;1.80;99.90;;;;;;4974116;28;20477;-24
2021/01/25 03:59:52;;;;;;;8.43;7.20;;;1.80;99.90;;;;;;4974042;28;20449;-24
2021/01/25 04:02:19;;;;;;;8.47;7.37;;;1.80;99.90;;;;;;4972393;28;20532;-24
2021/01/25 04:04:46;;;;;;;6.63;6.03;;;1.80;99.90;;;;;;4973950;28;20437;-24
2021/01/25 04:07:13;;;;;;;7.67;6.97;;;1.70;99.90;;;;;;4973910;28;20851;-24
2021/01/25 04:09:40;;;;;;;8.40;7.07;;;1.80;99.90;;;;;;4974355;28;20757;-24
2021/01/25 04:12:09;;;;;;;10.03;6.63;;;1.80;99.90;;;;;;4973062;28;20532;-24
2021/01/25 04:14:36;;;;;;;7.43;6.73;;;1.90;99.90;;;;;;4974783;28;20437;-24
2021/01/25 04:17:03;;;;;;;7.97;6.30;;;1.90;99.90;;;;;;4974786;28;20484;-24
2021/01/25 04:19:29;;;;;;;7.57;6.93;;;2.00;99.90;;;;;;4956750;28;20512;-24
2021/01/25 04:21:56;;;;;;;8.07;7.30;;;2.10;99.90;;;;;;4973203;28;20476;-24
2021/01/25 04:24:23;;;;;;;7.80;7.10;;;2.10;99.90;;;;;;4973547;28;20467;-24
2021/01/25 04:26:49;;;;;;;10.30;6.93;;;2.20;99.90;;;;;;4974023;28;20434;-24
2021/01/25 04:29:17;;;;;;;9.40;8.30;;;2.30;99.90;;;;;;4973962;28;20503;-24
2021/01/25 04:31:44;;;;;;;9.00;8.13;;;2.30;99.90;;;;;;4974597;28;20544;-24
2021/01/25 04:34:11;;;;;;;8.73;7.93;;;2.30;99.90;;;;;;4973209;28;20448;-24
2021/01/25 04:36:37;;;;;;;9.70;8.80;;;2.30;99.90;;;;;;4972386;28;20505;-24
2021/01/25 04:39:04;;;;;;;11.63;9.20;;;2.40;99.90;;;;;;4972771;28;20441;-24
2021/01/25 04:41:31;;;;;;;9.23;8.53;;;2.40;99.90;;;;;;4974732;28;20748;-24
2021/01/25 04:44:01;;;;;;;8.67;8.00;;;2.30;99.90;;;;;;4974394;28;20888;-24
2021/01/25 04:46:30;;;;;;;20.30;9.13;;;2.40;99.90;;;;;;4974534;28;20444;-25
2021/01/25 04:48:56;;;;;;;10.37;9.30;;;2.40;99.90;;;;;;4973347;28;20563;-24
2021/01/25 04:51:26;;;;;;;13.63;9.90;;;2.40;99.90;;;;;;4971796;28;20542;-24
2021/01/25 04:53:54;;;;;;;12.87;9.10;;;2.40;99.90;;;;;;4970931;28;20452;-24
2021/01/25 04:56:22;;;;;;;9.30;7.90;;;2.40;99.90;;;;;;4970649;28;20472;-24
2021/01/25 04:58:49;;;;;;;11.73;10.40;;;2.50;99.90;;;;;;4971937;28;20495;-24
2021/01/25 05:01:16;;;;;;;11.27;10.07;;;2.50;99.90;;;;;;4969523;28;20568;-24
2021/01/25 05:03:47;;;;;;;9.43;8.43;;;2.50;99.90;;;;;;4969405;28;20499;-24
2021/01/25 05:06:19;;;;;;;11.13;10.00;;;2.50;99.90;;;;;;4970457;28;20441;-24
2021/01/25 05:08:46;;;;;;;13.53;9.70;;;2.40;99.90;;;;;;4968742;28;20503;-25
2021/01/25 05:11:14;;;;;;;10.40;9.40;;;2.40;99.90;;;;;;4970252;28;20487;-24
2021/01/25 05:13:42;;;;;;;16.00;9.87;;;2.40;99.90;;;;;;4970405;28;20451;-24
2021/01/25 05:16:17;;;;;;;10.70;9.60;;;2.40;99.90;;;;;;4972120;28;20477;-24
2021/01/25 05:18:45;;;;;;;9.13;8.40;;;2.50;99.90;;;;;;4971258;28;20441;-25
2021/01/25 05:21:12;;;;;;;12.87;9.10;;;2.50;99.90;;;;;;4971688;28;20441;-25
2021/01/25 05:23:40;;;;;;;14.60;10.03;;;2.50;99.90;;;;;;4969062;28;20446;-24
2021/01/25 05:26:08;;;;;;;12.10;10.40;;;2.50;99.90;;;;;;4969727;28;20492;-24
2021/01/25 05:28:40;;;;;;;10.90;9.80;;;2.50;99.90;;;;;;4954172;28;20442;-24
2021/01/25 05:31:18;;;;;;;9.90;8.90;;;2.50;99.90;;;;;;4968368;28;20476;-24
2021/01/25 05:33:46;;;;;;;13.53;9.17;;;2.50;99.90;;;;;;4967880;28;20441;-24
2021/01/25 05:36:16;;;;;;;11.10;9.23;;;2.50;99.90;;;;;;4966469;28;20484;-24
2021/01/25 05:38:47;;;;;;;10.03;8.90;;;2.60;99.90;;;;;;4965570;28;20457;-24
2021/01/25 05:41:17;;;;;;;10.20;9.30;;;2.60;99.90;;;;;;4967644;28;20461;-24
2021/01/25 05:43:45;;;;;;;9.27;8.37;;;2.60;99.90;;;;;;4967567;28;20429;-24
2021/01/25 05:46:13;;;;;;;8.70;7.80;;;2.60;99.90;;;;;;4966368;28;20444;-25
2021/01/25 05:48:41;;;;;;;9.93;8.93;;;2.60;99.90;;;;;;4965353;28;20667;-24
2021/01/25 05:51:15;;;;;;;13.27;11.47;;;2.70;99.90;;;;;;4965182;28;20508;-24
2021/01/25 05:53:43;;;;;;;16.80;13.37;;;2.60;99.90;;;;;;4967149;28;20452;-24
2021/01/25 05:56:11;;;;;;;19.10;15.30;;;2.70;99.90;;;;;;4966615;28;20489;-24
2021/01/25 05:58:38;;;;;;;18.13;12.83;;;2.70;99.90;;;;;;4966352;28;20442;-24
2021/01/25 06:01:05;;;;;;;15.50;11.07;;;2.70;99.90;;;;;;4965303;28;20989;-24
2021/01/25 06:03:36;;;;;;;11.80;10.03;;;2.70;99.90;;;;;;4970997;28;20433;-24
2021/01/25 06:06:11;;;;;;;10.00;9.03;;;2.70;99.90;;;;;;4968636;28;20477;-24
2021/01/25 06:09:06;;;;;;;9.40;8.53;;;2.70;99.90;;;;;;4971162;28;20479;-24
2021/01/25 06:11:33;;;;;;;24.03;9.40;;;2.60;99.90;;;;;;4966888;28;20446;-24
2021/01/25 06:14:07;;;;;;;9.43;8.50;;;2.60;99.90;;;;;;4964868;28;20453;-24
2021/01/25 06:16:37;;;;;;;10.07;9.10;;;2.60;99.90;;;;;;4964447;28;20473;-24
2021/01/25 06:19:06;;;;;;;10.17;9.17;;;2.60;99.90;;;;;;4963822;28;20455;-24
2021/01/25 06:21:38;;;;;;;9.73;8.73;;;2.60;99.90;;;;;;4960400;28;20461;-24
2021/01/25 06:24:12;;;;;;;13.63;11.27;;;2.60;99.90;;;;;;4957396;28;21024;-24
2021/01/25 06:26:40;;;;;;;9.93;8.93;;;2.60;99.90;;;;;;4959045;28;20451;-24
2021/01/25 06:29:08;;;;;;;10.13;9.23;;;2.60;99.90;;;;;;4958666;28;20489;-24
2021/01/25 06:31:36;;;;;;;9.90;8.87;;;2.60;99.90;;;;;;4943149;28;20468;-24
2021/01/25 06:34:05;;;;;;;11.60;9.43;;;2.60;99.90;;;;;;4958189;28;20544;-24
2021/01/25 06:36:34;;;;;;;9.17;8.27;;;2.60;99.90;;;;;;4957642;28;20485;-25
2021/01/25 06:39:04;;;;;;;10.50;9.43;;;2.60;99.90;;;;;;4955735;28;20456;-24
2021/01/25 06:41:37;;;;;;;10.60;9.23;;;2.70;99.90;;;;;;4954387;28;20452;-24
2021/01/25 06:44:04;;;;;;;9.47;8.57;;;2.70;99.90;;;;;;4956300;28;20593;-24
2021/01/25 06:46:33;;;;;;;10.43;9.33;;;2.70;99.90;;;;;;4954433;28;20459;-24
2021/01/25 06:49:01;;;;;;;11.50;10.30;;;2.70;99.90;;;;;;4951487;28;20441;-24
2021/01/25 06:51:29;;;;;;;11.47;10.40;;;2.70;99.90;;;;;;4947546;28;20493;-24
2021/01/25 06:53:59;;;;;;;12.73;11.50;;;2.60;99.90;;;;;;4951232;28;20790;-24
2021/01/25 06:56:26;;;;;;;15.17;13.63;;;2.70;99.90;;;;;;4952713;28;20469;-24
2021/01/25 06:58:58;;;;;;;14.80;13.30;;;2.70;99.90;;;;;;4933298;28;20450;-24
2021/01/25 07:01:25;;;;;;;14.50;13.00;;;2.70;99.90;;;;;;4949237;28;20465;-24
2021/01/25 07:03:56;;;;;;;12.77;10.57;;;2.70;99.90;;;;;;4949319;28;20555;-24
2021/01/25 07:06:34;;;;;;;11.37;9.70;;;2.70;99.90;;;;;;4948249;28;21306;-24
2021/01/25 07:09:06;;;;;;;10.30;9.30;;;2.60;99.90;;;;;;4948140;28;20441;-24
2021/01/25 07:11:35;;;;;;;12.77;10.30;;;2.50;99.90;;;;;;4946566;28;21038;-24
2021/01/25 07:14:06;;;;;;;13.20;10.40;;;2.50;99.90;;;;;;4946273;28;20445;-24
2021/01/25 07:16:35;;;;;;;10.90;9.90;;;2.50;99.90;;;;;;4946472;28;20827;-24
2021/01/25 07:19:03;;;;;;;12.83;10.50;;;2.60;99.90;;;;;;4946781;28;20437;-24
2021/01/25 07:21:32;;;;;;;13.47;10.67;;;2.60;99.90;;;;;;4942721;28;20465;-24
2021/01/25 07:24:01;;;;;;;14.00;10.50;;;2.60;99.90;;;;;;4935712;28;20571;-24
2021/01/25 07:26:36;;;;;;;13.50;11.43;;;2.60;99.90;;;;;;4939577;28;20443;-24
2021/01/25 07:29:10;;;;;;;12.73;10.60;;;2.70;99.90;;;;;;4944753;28;20455;-24
2021/01/25 07:31:37;;;;;;;16.90;13.47;;;2.70;99.90;;;;;;4944145;28;20712;-24
2021/01/25 07:34:04;;;;;;;11.93;10.77;;;2.70;99.90;;;;;;4920528;28;20437;-24
2021/01/25 07:36:31;;;;;;;12.70;10.30;;;2.80;99.90;;;;;;4937885;28;20576;-24
2021/01/25 07:38:59;;;;;;;14.03;10.60;;;2.80;99.90;;;;;;4936595;28;20501;-24
2021/01/25 07:41:26;;;;;;;12.83;11.33;;;2.90;99.90;;;;;;4921294;29;21172;-24
2021/01/25 07:43:56;;;;;;;13.90;12.60;;;2.80;99.90;;;;;;4920952;29;20430;-24
2021/01/25 07:46:24;;;;;;;14.07;11.90;;;2.70;99.90;;;;;;4929421;28;20942;-25
2021/01/25 07:48:53;;;;;;;14.00;11.13;;;2.70;99.90;;;;;;4936714;28;20465;-25
2021/01/25 07:51:22;;;;;;;17.27;10.80;;;2.60;99.90;;;;;;4915085;28;20505;-25
2021/01/25 07:53:51;;;;;;;13.43;10.97;;;2.60;99.90;;;;;;4935501;28;20438;-25
2021/01/25 07:56:20;;;;;;;14.30;12.70;;;2.60;99.90;;;;;;4930981;28;20571;-24
2021/01/25 07:58:48;;;;;;;14.67;12.43;;;2.60;99.90;;;;;;4936539;28;20472;-24
2021/01/25 08:01:21;;;;;;;13.50;11.90;;;2.60;99.90;;;;;;4936231;28;20501;-24
2021/01/25 08:03:55;;;;;;;20.87;11.60;;;2.60;99.90;;;;;;4937986;28;20445;-25
2021/01/25 08:06:23;;;;;;;15.90;11.67;;;2.60;99.90;;;;;;4938293;28;20889;-25
2021/01/25 08:08:52;;;;;;;18.10;12.67;;;2.60;99.90;;;;;;4937564;28;20517;-25
2021/01/25 08:11:20;;;;;;;14.20;12.70;;;2.60;99.90;;;;;;4938796;28;20501;-25
2021/01/25 08:13:58;;;;;;;12.53;11.17;;;2.70;99.90;;;;;;4939105;28;20910;-25
2021/01/25 08:16:31;;;;;;;15.33;12.10;;;2.70;99.90;;;;;;4932394;28;20470;-25
2021/01/25 08:19:06;;;;;;;18.10;12.83;;;2.80;99.90;;;;;;4938580;28;20506;-25
2021/01/25 08:21:35;;;;;;;14.17;12.80;;;2.80;99.90;;;;;;4938235;28;20451;-25
2021/01/25 08:24:07;;;;;;;19.70;12.43;;;2.80;99.90;;;;;;4939877;28;20540;-25
2021/01/25 08:26:35;;;;;;;11.60;10.50;;;2.80;99.90;;;;;;4941669;28;20508;-25
2021/01/25 08:29:05;;;;;;;20.60;13.60;;;2.90;99.90;;;;;;4942282;28;20460;-25
2021/01/25 08:31:37;;;;;;;22.60;13.00;;;3.00;99.90;;;;;;4937634;28;20466;-25
2021/01/25 08:34:06;;;;;;;14.87;12.73;;;3.20;99.90;;;;;;4937328;28;20465;-25
2021/01/25 08:36:36;;;;;;;14.73;12.07;;;3.30;99.90;;;;;;4939044;28;20532;-25
2021/01/25 08:39:11;;;;;;;16.07;11.23;;;3.50;99.90;;;;;;4941113;28;20736;-25
2021/01/25 08:41:48;;;;;;;19.03;12.60;;;3.80;99.90;;;;;;4944848;28;20449;-25
2021/01/25 08:44:18;;;;;;;17.93;12.57;;;4.00;99.90;;;;;;4947272;28;20457;-25
2021/01/25 08:46:47;;;;;;;20.07;13.60;;;4.30;99.90;;;;;;4944522;28;20488;-25
2021/01/25 08:49:16;;;;;;;13.97;12.10;;;4.40;99.90;;;;;;4940599;28;21324;-25
2021/01/25 08:52:10;;;;;;;25.27;16.87;;;4.40;99.90;;;;;;4941706;28;20469;-26
2021/01/25 08:54:52;;;;;;;21.93;14.33;;;4.50;99.90;;;;;;4941721;28;20490;-26
2021/01/25 08:57:23;;;;;;;12.53;11.27;;;4.50;99.90;;;;;;4941575;28;20974;-25
2021/01/25 08:59:50;;;;;;;19.30;15.63;;;4.60;99.90;;;;;;4941500;28;20479;-25
2021/01/25 09:02:23;;;;;;;14.30;11.63;;;4.50;99.90;;;;;;4941961;28;20631;-25
2021/01/25 09:04:51;;;;;;;13.70;11.03;;;4.50;99.90;;;;;;4941530;28;20441;-25
2021/01/25 09:07:21;;;;;;;14.90;13.30;;;4.50;99.90;;;;;;4921637;28;20523;-25
2021/01/25 09:09:49;;;;;;;13.73;12.30;;;4.60;99.90;;;;;;4920236;28;20461;-26
2021/01/25 09:12:19;;;;;;;15.77;14.13;;;4.60;99.90;;;;;;4922314;28;20674;-26
2021/01/25 09:14:47;;;;;;;22.57;18.33;;;4.60;99.90;;;;;;4924448;28;20560;-26
2021/01/25 09:17:17;;;;;;;18.43;15.07;;;4.70;99.90;;;;;;4920692;28;20485;-26
2021/01/25 09:19:45;;;;;;;13.90;12.50;;;4.90;99.90;;;;;;4923085;28;20457;-26
2021/01/25 09:22:13;;;;;;;13.13;11.27;;;5.00;99.90;;;;;;4928282;28;20465;-25
2021/01/25 09:24:41;;;;;;;13.10;11.70;;;5.10;99.90;;;;;;4913243;28;20888;-25
2021/01/25 09:27:09;;;;;;;13.53;10.83;;;5.00;99.90;;;;;;4907179;28;20505;-25
2021/01/25 09:29:36;;;;;;;12.30;11.00;;;4.90;99.90;;;;;;4925650;28;20445;-25
2021/01/25 09:32:05;;;;;;;12.47;10.97;;;4.80;99.90;;;;;;4940724;28;21116;-25
2021/01/25 09:34:54;;;;;;;12.63;11.33;;;4.80;99.90;;;;;;4937165;28;20541;-25
2021/01/25 09:37:31;;;;;;;14.00;12.20;;;4.90;99.90;;;;;;4940013;28;20461;-25
2021/01/25 09:40:01;;;;;;;16.10;13.27;;;4.80;99.90;;;;;;4930246;28;20457;-25
2021/01/25 09:42:28;;;;;;;12.67;11.40;;;4.80;99.90;;;;;;4940784;28;21029;-25
2021/01/25 09:44:55;;;;;;;14.73;12.67;;;4.80;99.90;;;;;;4939445;28;20444;-25
2021/01/25 09:47:23;;;;;;;12.60;11.00;;;4.70;99.90;;;;;;4923011;28;20503;-25
2021/01/25 09:49:51;;;;;;;13.23;11.83;;;4.40;99.90;;;;;;4940026;28;20522;-25
2021/01/25 09:52:19;;;;;;;12.97;11.67;;;4.20;99.90;;;;;;4935790;28;20504;-25
2021/01/25 09:54:46;;;;;;;17.80;12.70;;;4.00;99.90;;;;;;4939514;28;21027;-25
2021/01/25 09:57:14;;;;;;;14.47;12.60;;;3.90;99.90;;;;;;4939189;28;20473;-25
2021/01/25 09:59:41;;;;;;;17.90;14.30;;;3.90;99.90;;;;;;4939144;28;20453;-25
2021/01/25 10:02:09;;;;;;;14.13;12.57;;;3.90;99.90;;;;;;4938524;28;20487;-25
2021/01/25 10:04:38;;;;;;;16.77;13.10;;;4.00;99.90;;;;;;4941223;28;20477;-25
2021/01/25 10:07:07;;;;;;;14.20;11.67;;;4.10;99.90;;;;;;4921103;29;20477;-25
2021/01/25 10:09:34;;;;;;;15.70;12.80;;;4.20;99.90;;;;;;4916824;29;20465;-25
2021/01/25 10:12:02;;;;;;;15.43;13.50;;;4.40;99.90;;;;;;4934848;28;20468;-25
2021/01/25 10:14:30;;;;;;;17.07;13.47;;;4.60;99.90;;;;;;4943445;28;21166;-25
2021/01/25 10:16:58;;;;;;;16.40;14.50;;;4.80;99.90;;;;;;4942334;28;20515;-25
2021/01/25 10:19:26;;;;;;;14.13;12.70;;;5.00;99.90;;;;;;4943843;28;20457;-25
2021/01/25 10:21:54;;;;;;;15.90;14.13;;;5.10;99.90;;;;;;4941253;28;20453;-25
2021/01/25 10:24:23;;;;;;;15.23;11.40;;;5.10;99.90;;;;;;4926755;28;20948;-25
2021/01/25 10:26:51;;;;;;;14.40;12.47;;;5.20;99.90;;;;;;4941787;28;20551;-25
2021/01/25 10:29:24;;;;;;;15.43;12.80;;;5.40;99.90;;;;;;4938996;28;20922;-25
2021/01/25 10:31:51;;;;;;;15.20;13.80;;;5.60;99.90;;;;;;4944356;28;20477;-23
2021/01/25 10:34:18;;;;;;;13.07;11.60;;;5.70;99.90;;;;;;4939130;28;20496;-24
2021/01/25 10:36:45;;;;;;;15.30;12.20;;;6.00;99.90;;;;;;4943008;28;20489;-24
2021/01/25 10:39:13;;;;;;;12.20;10.50;;;6.20;99.90;;;;;;4941759;28;20485;-24
2021/01/25 10:41:43;;;;;;;12.57;10.77;;;6.30;99.90;;;;;;4940413;28;20504;-24
2021/01/25 10:44:15;;;;;;;11.20;10.20;;;6.10;99.90;;;;;;4939337;28;20556;-24
2021/01/25 10:46:43;;;;;;;12.40;11.17;;;5.80;99.90;;;;;;4939178;28;20596;-24
2021/01/25 10:49:10;;;;;;;10.43;9.43;;;5.70;99.90;;;;;;4935199;28;20802;-24
2021/01/25 10:51:41;;;;;;;12.20;11.00;;;5.60;99.90;;;;;;4939403;28;20798;-24
2021/01/25 10:54:10;;;;;;;9.47;8.57;;;5.50;99.90;;;;;;4940397;28;20750;-24
2021/01/25 10:56:38;;;;;;;9.67;8.77;;;5.30;99.90;;;;;;4941988;28;20510;-24
2021/01/25 10:59:07;;;;;;;11.03;9.93;;;5.20;99.90;;;;;;4933523;28;20449;-25
2021/01/25 11:01:35;;;;;;;10.20;9.27;;;5.00;99.90;;;;;;4941622;28;20910;-24
2021/01/25 11:04:13;;;;;;;12.13;10.90;;;4.90;99.90;;;;;;4940477;28;20437;-24
2021/01/25 11:06:40;;;;;;;11.33;10.10;;;4.80;99.90;;;;;;4936455;28;20499;-23
2021/01/25 11:09:08;;;;;;;12.60;11.30;;;4.70;99.90;;;;;;4936551;28;20453;-23
2021/01/25 11:11:37;;;;;;;12.53;11.23;;;4.70;99.90;;;;;;4939074;28;20468;-23
2021/01/25 11:14:04;;;;;;;13.97;12.30;;;4.70;99.90;;;;;;4934827;28;20449;-23
2021/01/25 11:16:34;;;;;;;11.73;10.53;;;4.70;99.90;;;;;;4940673;28;20625;-26
2021/01/25 11:19:03;;;;;;;10.03;8.63;;;4.80;99.90;;;;;;4937886;28;20489;-25
2021/01/25 11:21:32;;;;;;;10.70;9.53;;;5.00;99.90;;;;;;4936514;28;20468;-25
2021/01/25 11:24:00;;;;;;;10.60;9.23;;;5.00;99.90;;;;;;4938963;28;20449;-25
2021/01/25 11:26:28;;;;;;;11.57;10.13;;;5.20;99.90;;;;;;4943158;28;20460;-25
2021/01/25 11:28:56;;;;;;;9.70;8.77;;;5.40;99.90;;;;;;4940836;28;20809;-25
2021/01/25 11:31:24;;;;;;;10.63;9.63;;;5.60;99.90;;;;;;4939661;28;20548;-25
2021/01/25 11:33:52;;;;;;;13.77;9.60;;;5.70;99.90;;;;;;4939835;28;20465;-25
2021/01/25 11:36:22;;;;;;;9.90;9.00;;;5.80;99.90;;;;;;4934490;28;20500;-25
2021/01/25 11:38:50;;;;;;;11.90;9.70;;;5.80;99.90;;;;;;4940330;28;20544;-25
2021/01/25 11:41:18;;;;;;;12.10;10.80;;;5.60;99.90;;;;;;4938843;28;20464;-25
2021/01/25 11:43:46;;;;;;;10.80;9.77;;;5.70;99.90;;;;;;4941535;28;20552;-25
2021/01/25 11:46:23;;;;;;;9.90;8.90;;;5.90;99.90;;;;;;4936889;28;20488;-25
2021/01/25 11:48:51;;;;;;;10.07;9.00;;;6.10;99.90;;;;;;4938219;28;21200;-25
2021/01/25 11:51:18;;;;;;;11.67;10.33;;;6.30;99.90;;;;;;4941896;28;20572;-25
2021/01/25 11:53:46;;;;;;;9.63;8.73;;;6.40;99.90;;;;;;4947870;28;20436;-25
2021/01/25 11:56:14;;;;;;;10.70;9.60;;;6.50;99.90;;;;;;4945425;28;20537;-25
2021/01/25 11:58:41;;;;;;;10.87;9.97;;;6.40;99.90;;;;;;4940518;28;20468;-25
2021/01/25 12:01:08;;;;;;;10.57;9.63;;;6.40;99.90;;;;;;4939512;28;20548;-25
2021/01/25 12:03:35;;;;;;;10.83;8.60;;;6.40;99.90;;;;;;4923138;28;20460;-25
2021/01/25 12:06:02;;;;;;;10.77;8.90;;;6.30;99.90;;;;;;4942016;28;20454;-25
2021/01/25 12:08:29;;;;;;;9.70;8.70;;;6.10;99.90;;;;;;4942508;28;20488;-25
2021/01/25 12:10:56;;;;;;;11.37;9.87;;;5.90;99.90;;;;;;4945474;28;20572;-25
2021/01/25 12:13:24;;;;;;;9.80;9.00;;;5.70;99.90;;;;;;4945901;28;20448;-25
2021/01/25 12:15:51;;;;;;;10.63;9.60;;;5.50;99.90;;;;;;4946376;28;20445;-25
2021/01/25 12:18:18;;;;;;;11.17;9.97;;;5.30;99.90;;;;;;4949781;28;20485;-25
2021/01/25 12:20:45;;;;;;;11.83;10.70;;;5.20;99.90;;;;;;4944991;28;20444;-25
2021/01/25 12:23:12;;;;;;;11.77;10.70;;;5.20;99.90;;;;;;4944907;28;20445;-25
2021/01/25 12:25:40;;;;;;;11.03;9.93;;;5.30;99.90;;;;;;4946698;28;20797;-25
2021/01/25 12:28:07;;;;;;;11.90;10.33;;;5.30;99.90;;;;;;4945421;28;20451;-25
2021/01/25 12:30:40;;;;;;;16.27;11.27;;;5.20;99.90;;;;;;4932646;28;20464;-25
2021/01/25 12:33:08;;;;;;;11.97;10.87;;;5.10;99.90;;;;;;4942248;28;20475;-25
2021/01/25 12:35:35;;;;;;;12.43;11.10;;;5.00;99.90;;;;;;4947191;28;20464;-25
2021/01/25 12:38:03;;;;;;;13.73;12.13;;;5.00;99.90;;;;;;4943342;28;20701;-25
2021/01/25 12:40:30;;;;;;;17.60;12.50;;;5.10;99.90;;;;;;4943855;28;20453;-25
2021/01/25 12:42:57;;;;;;;14.83;12.13;;;5.10;99.90;;;;;;4944062;28;20469;-25
2021/01/25 12:45:25;;;;;;;12.90;11.60;;;5.30;99.90;;;;;;4949432;28;20509;-25
2021/01/25 12:47:52;;;;;;;13.53;10.63;;;5.40;99.90;;;;;;4942609;28;20523;-25
2021/01/25 12:50:21;;;;;;;13.57;10.63;;;5.30;99.90;;;;;;4946443;28;20903;-25
2021/01/25 12:52:48;;;;;;;12.10;9.53;;;5.40;99.90;;;;;;4943586;28;20463;-25
2021/01/25 12:55:15;;;;;;;11.67;10.07;;;5.30;99.90;;;;;;4947296;28;20455;-25